FDY596 PHNL-PHNY
Flight info
| Callsign | FDY596 |
|---|---|
| Flight time | 0h 34m |
| Altitude | 7000 |
| Route | PALAY3 LNY |
| Aircraft | C208/L-SDFGR/C |
Departure
| Time | 2026-05-08 05:03 |
|---|---|
| Airport | Daniel K. Inouye International Airport (PHNL) |
Arrival
| Time | 2026-05-08 05:37 |
|---|---|
| Airport | Lanai Airport (PHNY) |
| Time | Latitude | Longitude | Altitude | Speed | Heading |
|---|---|---|---|---|---|
| 2026-05-08 04:45 | 21.33114 | -157.91084 | 18 ft | 0 kts | 323° |
| 2026-05-08 04:56 | 21.33114 | -157.91085 | 18 ft | 0 kts | 323° |
| 2026-05-08 04:56 | 21.33109 | -157.91080 | 18 ft | 0 kts | 322° |
| 2026-05-08 04:56 | 21.33097 | -157.91085 | 18 ft | 7 kts | 175° |
| 2026-05-08 04:56 | 21.33015 | -157.91088 | 17 ft | 11 kts | 184° |
| 2026-05-08 04:57 | 21.32924 | -157.91168 | 17 ft | 23 kts | 233° |
| 2026-05-08 04:57 | 21.32847 | -157.91272 | 18 ft | 13 kts | 232° |
| 2026-05-08 04:57 | 21.32785 | -157.91357 | 16 ft | 0 kts | 230° |
| 2026-05-08 04:57 | 21.32765 | -157.91352 | 15 ft | 10 kts | 101° |
| 2026-05-08 04:58 | 21.32698 | -157.91318 | 15 ft | 20 kts | 232° |
| 2026-05-08 04:58 | 21.32689 | -157.91490 | 15 ft | 26 kts | 268° |
| 2026-05-08 04:58 | 21.32697 | -157.91684 | 16 ft | 25 kts | 255° |
| 2026-05-08 04:58 | 21.32691 | -157.91879 | 17 ft | 27 kts | 269° |
| 2026-05-08 04:59 | 21.32690 | -157.92014 | 17 ft | 11 kts | 271° |
| 2026-05-08 04:59 | 21.32693 | -157.92125 | 18 ft | 19 kts | 273° |
| 2026-05-08 04:59 | 21.32694 | -157.92275 | 18 ft | 19 kts | 269° |
| 2026-05-08 04:59 | 21.32692 | -157.92308 | 18 ft | 7 kts | 263° |
| 2026-05-08 05:00 | 21.32690 | -157.92413 | 18 ft | 21 kts | 272° |
| 2026-05-08 05:00 | 21.32693 | -157.92614 | 18 ft | 28 kts | 271° |
| 2026-05-08 05:00 | 21.32709 | -157.92759 | 18 ft | 16 kts | 308° |
| 2026-05-08 05:00 | 21.32728 | -157.92886 | 17 ft | 18 kts | 220° |
| 2026-05-08 05:01 | 21.32580 | -157.92895 | 18 ft | 12 kts | 178° |
| 2026-05-08 05:01 | 21.32556 | -157.92895 | 18 ft | 9 kts | 179° |
| 2026-05-08 05:01 | 21.32526 | -157.92858 | 18 ft | 0 kts | 91° |
| 2026-05-08 05:02 | 21.32526 | -157.92775 | 17 ft | 38 kts | 89° |
| 2026-05-08 05:02 | 21.32514 | -157.92327 | 140 ft | 68 kts | 86° |
| 2026-05-08 05:03 | 21.32384 | -157.91789 | 382 ft | 82 kts | 110° |
| 2026-05-08 05:03 | 21.31940 | -157.91319 | 592 ft | 105 kts | 135° |
| 2026-05-08 05:03 | 21.31271 | -157.90879 | 864 ft | 117 kts | 150° |
| 2026-05-08 05:03 | 21.30414 | -157.90747 | 1128 ft | 130 kts | 178° |
| 2026-05-08 05:04 | 21.29563 | -157.90826 | 1579 ft | 117 kts | 181° |
| 2026-05-08 05:04 | 21.28785 | -157.90925 | 2023 ft | 108 kts | 185° |
| 2026-05-08 05:04 | 21.28080 | -157.91007 | 2451 ft | 97 kts | 184° |
| 2026-05-08 05:04 | 21.27461 | -157.91065 | 2849 ft | 80 kts | 185° |
| 2026-05-08 05:05 | 21.26853 | -157.91119 | 2946 ft | 102 kts | 185° |
| 2026-05-08 05:05 | 21.26134 | -157.91185 | 3246 ft | 105 kts | 183° |
| 2026-05-08 05:05 | 21.25382 | -157.91250 | 3529 ft | 112 kts | 184° |
| 2026-05-08 05:05 | 21.24540 | -157.91315 | 3729 ft | 129 kts | 184° |
| 2026-05-08 05:06 | 21.23610 | -157.91384 | 3915 ft | 141 kts | 184° |
| 2026-05-08 05:06 | 21.22596 | -157.91459 | 4096 ft | 150 kts | 184° |
| 2026-05-08 05:06 | 21.21530 | -157.91538 | 4263 ft | 154 kts | 184° |
| 2026-05-08 05:06 | 21.20456 | -157.91616 | 4418 ft | 155 kts | 184° |
| 2026-05-08 05:07 | 21.19375 | -157.91695 | 4575 ft | 156 kts | 184° |
| 2026-05-08 05:07 | 21.18290 | -157.91773 | 4724 ft | 156 kts | 182° |
| 2026-05-08 05:07 | 21.17261 | -157.91482 | 4872 ft | 156 kts | 142° |
| 2026-05-08 05:07 | 21.16659 | -157.90548 | 5010 ft | 157 kts | 112° |
| 2026-05-08 05:08 | 21.16246 | -157.89438 | 5010 ft | 164 kts | 110° |
| 2026-05-08 05:08 | 21.16007 | -157.88215 | 5025 ft | 167 kts | 97° |
| 2026-05-08 05:08 | 21.15850 | -157.86987 | 5023 ft | 170 kts | 99° |
| 2026-05-08 05:08 | 21.15644 | -157.85738 | 5023 ft | 171 kts | 100° |
| 2026-05-08 05:09 | 21.15425 | -157.84488 | 5020 ft | 171 kts | 101° |
| 2026-05-08 05:09 | 21.15204 | -157.83230 | 5022 ft | 171 kts | 100° |
| 2026-05-08 05:09 | 21.14984 | -157.81978 | 5021 ft | 171 kts | 100° |
| 2026-05-08 05:09 | 21.14767 | -157.80742 | 5127 ft | 166 kts | 100° |
| 2026-05-08 05:10 | 21.14556 | -157.79540 | 5243 ft | 163 kts | 101° |
| 2026-05-08 05:10 | 21.14142 | -157.77179 | 5476 ft | 160 kts | 101° |
| 2026-05-08 05:10 | 21.13939 | -157.76023 | 5594 ft | 159 kts | 101° |
| 2026-05-08 05:11 | 21.13734 | -157.74858 | 5713 ft | 159 kts | 101° |
| 2026-05-08 05:11 | 21.13529 | -157.73689 | 5833 ft | 159 kts | 101° |
| 2026-05-08 05:11 | 21.13323 | -157.72524 | 5957 ft | 159 kts | 101° |
| 2026-05-08 05:11 | 21.13118 | -157.71359 | 6078 ft | 159 kts | 101° |
| 2026-05-08 05:12 | 21.12911 | -157.70190 | 6202 ft | 159 kts | 101° |
| 2026-05-08 05:12 | 21.12706 | -157.69021 | 6323 ft | 160 kts | 102° |
| 2026-05-08 05:12 | 21.12499 | -157.67850 | 6454 ft | 160 kts | 101° |
| 2026-05-08 05:12 | 21.12294 | -157.66673 | 6570 ft | 161 kts | 101° |
| 2026-05-08 05:13 | 21.12085 | -157.65497 | 6682 ft | 161 kts | 102° |
| 2026-05-08 05:13 | 21.11877 | -157.64317 | 6796 ft | 161 kts | 102° |
| 2026-05-08 05:13 | 21.11669 | -157.63141 | 6913 ft | 161 kts | 102° |
| 2026-05-08 05:13 | 21.11464 | -157.61977 | 6994 ft | 163 kts | 101° |
| 2026-05-08 05:14 | 21.11248 | -157.60754 | 6995 ft | 169 kts | 102° |
| 2026-05-08 05:14 | 21.11028 | -157.59509 | 6997 ft | 171 kts | 101° |
| 2026-05-08 05:14 | 21.10805 | -157.58251 | 7001 ft | 173 kts | 102° |
| 2026-05-08 05:14 | 21.10604 | -157.56976 | 7002 ft | 174 kts | 95° |
| 2026-05-08 05:15 | 21.10699 | -157.55681 | 7005 ft | 175 kts | 84° |
| 2026-05-08 05:15 | 21.10812 | -157.54388 | 7006 ft | 175 kts | 86° |
| 2026-05-08 05:15 | 21.10911 | -157.53101 | 7004 ft | 175 kts | 86° |
| 2026-05-08 05:15 | 21.11015 | -157.51803 | 7006 ft | 175 kts | 85° |
| 2026-05-08 05:16 | 21.11122 | -157.50506 | 7007 ft | 175 kts | 85° |
| 2026-05-08 05:16 | 21.11227 | -157.49213 | 7003 ft | 174 kts | 86° |
| 2026-05-08 05:16 | 21.11331 | -157.47922 | 7005 ft | 173 kts | 86° |
| 2026-05-08 05:16 | 21.11435 | -157.46636 | 7004 ft | 173 kts | 86° |
| 2026-05-08 05:17 | 21.11539 | -157.45348 | 7005 ft | 173 kts | 86° |
| 2026-05-08 05:17 | 21.11641 | -157.44075 | 7009 ft | 173 kts | 86° |
| 2026-05-08 05:17 | 21.11745 | -157.42792 | 7009 ft | 173 kts | 85° |
| 2026-05-08 05:17 | 21.11849 | -157.41512 | 7008 ft | 172 kts | 85° |
| 2026-05-08 05:18 | 21.11951 | -157.40234 | 7007 ft | 172 kts | 85° |
| 2026-05-08 05:18 | 21.12054 | -157.38960 | 7009 ft | 171 kts | 85° |
| 2026-05-08 05:18 | 21.12156 | -157.37693 | 7011 ft | 171 kts | 86° |
| 2026-05-08 05:18 | 21.12257 | -157.36426 | 7010 ft | 170 kts | 85° |
| 2026-05-08 05:19 | 21.12318 | -157.35164 | 7005 ft | 170 kts | 96° |
| 2026-05-08 05:19 | 21.11938 | -157.34002 | 7008 ft | 168 kts | 122° |
| 2026-05-08 05:19 | 21.11173 | -157.33056 | 7006 ft | 168 kts | 137° |
| 2026-05-08 05:19 | 21.10202 | -157.32370 | 7010 ft | 167 kts | 152° |
| 2026-05-08 05:20 | 21.09183 | -157.31765 | 7009 ft | 167 kts | 149° |
| 2026-05-08 05:20 | 21.08191 | -157.31119 | 7010 ft | 167 kts | 148° |
| 2026-05-08 05:20 | 21.07199 | -157.30460 | 7010 ft | 167 kts | 148° |
| 2026-05-08 05:20 | 21.06221 | -157.29811 | 7011 ft | 167 kts | 148° |
| 2026-05-08 05:21 | 21.05230 | -157.29153 | 7009 ft | 167 kts | 148° |
| 2026-05-08 05:21 | 21.04238 | -157.28495 | 7007 ft | 168 kts | 148° |
| 2026-05-08 05:21 | 21.03226 | -157.27824 | 6870 ft | 173 kts | 148° |
| 2026-05-08 05:21 | 21.02202 | -157.27147 | 6733 ft | 173 kts | 148° |
| 2026-05-08 05:22 | 21.01180 | -157.26468 | 6573 ft | 173 kts | 148° |
| 2026-05-08 05:22 | 21.00154 | -157.25788 | 6396 ft | 173 kts | 148° |
| 2026-05-08 05:22 | 20.99129 | -157.25108 | 6224 ft | 173 kts | 148° |
| 2026-05-08 05:22 | 20.98119 | -157.24438 | 6052 ft | 173 kts | 147° |
| 2026-05-08 05:23 | 20.97092 | -157.23758 | 5878 ft | 173 kts | 147° |
| 2026-05-08 05:23 | 20.96067 | -157.23078 | 5707 ft | 173 kts | 147° |
| 2026-05-08 05:23 | 20.95041 | -157.22398 | 5533 ft | 173 kts | 147° |
| 2026-05-08 05:23 | 20.94017 | -157.21720 | 5353 ft | 173 kts | 147° |
| 2026-05-08 05:24 | 20.93003 | -157.21048 | 5193 ft | 173 kts | 147° |
| 2026-05-08 05:24 | 20.91979 | -157.20369 | 5023 ft | 173 kts | 147° |
| 2026-05-08 05:24 | 20.90964 | -157.19697 | 4802 ft | 172 kts | 147° |
| 2026-05-08 05:24 | 20.89943 | -157.19021 | 4549 ft | 173 kts | 147° |
| 2026-05-08 05:25 | 20.88917 | -157.18342 | 4298 ft | 173 kts | 146° |
| 2026-05-08 05:25 | 20.87893 | -157.17665 | 4053 ft | 173 kts | 146° |
| 2026-05-08 05:25 | 20.86868 | -157.16984 | 3803 ft | 173 kts | 146° |
| 2026-05-08 05:25 | 20.85842 | -157.16306 | 3561 ft | 173 kts | 146° |
| 2026-05-08 05:26 | 20.84821 | -157.15632 | 3316 ft | 172 kts | 145° |
| 2026-05-08 05:26 | 20.83825 | -157.14974 | 3192 ft | 165 kts | 145° |
| 2026-05-08 05:26 | 20.82873 | -157.14344 | 3178 ft | 157 kts | 144° |
| 2026-05-08 05:26 | 20.81870 | -157.13912 | 3169 ft | 159 kts | 169° |
| 2026-05-08 05:27 | 20.80773 | -157.14047 | 3171 ft | 161 kts | 194° |
| 2026-05-08 05:27 | 20.79687 | -157.14331 | 3144 ft | 161 kts | 188° |
| 2026-05-08 05:27 | 20.78573 | -157.14521 | 3055 ft | 163 kts | 184° |
| 2026-05-08 05:27 | 20.77436 | -157.14634 | 2955 ft | 165 kts | 180° |
| 2026-05-08 05:28 | 20.76278 | -157.14666 | 2862 ft | 167 kts | 176° |
| 2026-05-08 05:28 | 20.75118 | -157.14612 | 2760 ft | 167 kts | 172° |
| 2026-05-08 05:28 | 20.73969 | -157.14468 | 2673 ft | 166 kts | 167° |
| 2026-05-08 05:28 | 20.72841 | -157.14243 | 2585 ft | 166 kts | 163° |
| 2026-05-08 05:29 | 20.71740 | -157.13938 | 2575 ft | 161 kts | 159° |
| 2026-05-08 05:29 | 20.70700 | -157.13567 | 2573 ft | 155 kts | 154° |
| 2026-05-08 05:29 | 20.69713 | -157.13136 | 2575 ft | 152 kts | 151° |
| 2026-05-08 05:29 | 20.68762 | -157.12643 | 2570 ft | 152 kts | 149° |
| 2026-05-08 05:30 | 20.67837 | -157.12086 | 2570 ft | 152 kts | 144° |
| 2026-05-08 05:30 | 20.66955 | -157.11463 | 2571 ft | 152 kts | 139° |
| 2026-05-08 05:30 | 20.66162 | -157.10727 | 2572 ft | 150 kts | 126° |
| 2026-05-08 05:30 | 20.65734 | -157.09750 | 2575 ft | 145 kts | 98° |
| 2026-05-08 05:31 | 20.65790 | -157.08694 | 2574 ft | 143 kts | 67° |
| 2026-05-08 05:31 | 20.66364 | -157.07865 | 2578 ft | 140 kts | 47° |
| 2026-05-08 05:31 | 20.67007 | -157.07119 | 2576 ft | 133 kts | 46° |
| 2026-05-08 05:31 | 20.67648 | -157.06433 | 2561 ft | 128 kts | 46° |
| 2026-05-08 05:32 | 20.68264 | -157.05787 | 2572 ft | 121 kts | 45° |
| 2026-05-08 05:32 | 20.68862 | -157.05162 | 2568 ft | 117 kts | 44° |
| 2026-05-08 05:32 | 20.69443 | -157.04556 | 2569 ft | 115 kts | 46° |
| 2026-05-08 05:32 | 20.69987 | -157.03989 | 2585 ft | 105 kts | 44° |
| 2026-05-08 05:33 | 20.70509 | -157.03456 | 2581 ft | 103 kts | 45° |
| 2026-05-08 05:33 | 20.71020 | -157.02927 | 2582 ft | 102 kts | 44° |
| 2026-05-08 05:33 | 20.71529 | -157.02400 | 2583 ft | 102 kts | 44° |
| 2026-05-08 05:33 | 20.72038 | -157.01880 | 2577 ft | 102 kts | 45° |
| 2026-05-08 05:34 | 20.72538 | -157.01359 | 2571 ft | 99 kts | 45° |
| 2026-05-08 05:34 | 20.73034 | -157.00849 | 2568 ft | 98 kts | 46° |
| 2026-05-08 05:34 | 20.73531 | -157.00338 | 2522 ft | 102 kts | 45° |
| 2026-05-08 05:34 | 20.74025 | -156.99824 | 2409 ft | 95 kts | 43° |
| 2026-05-08 05:35 | 20.74493 | -156.99344 | 2285 ft | 90 kts | 45° |
| 2026-05-08 05:35 | 20.74934 | -156.98890 | 2170 ft | 88 kts | 43° |
| 2026-05-08 05:35 | 20.75357 | -156.98449 | 2067 ft | 79 kts | 43° |
| 2026-05-08 05:35 | 20.75740 | -156.98056 | 1957 ft | 73 kts | 45° |
| 2026-05-08 05:36 | 20.76096 | -156.97693 | 1845 ft | 67 kts | 39° |
| 2026-05-08 05:36 | 20.76387 | -156.97418 | 1774 ft | 59 kts | 36° |
| 2026-05-08 05:36 | 20.76722 | -156.97073 | 1716 ft | 81 kts | 42° |
| 2026-05-08 05:36 | 20.77159 | -156.96612 | 1593 ft | 89 kts | 41° |
| 2026-05-08 05:37 | 20.77586 | -156.96171 | 1480 ft | 86 kts | 43° |
| 2026-05-08 05:37 | 20.77999 | -156.95741 | 1357 ft | 76 kts | 43° |
| 2026-05-08 05:37 | 20.78331 | -156.95392 | 1299 ft | 57 kts | 45° |
| 2026-05-08 05:37 | 20.78479 | -156.95233 | 1303 ft | 35 kts | 43° |
| 2026-05-08 05:38 | 20.78642 | -156.95068 | 1303 ft | 35 kts | 42° |
| 2026-05-08 05:38 | 20.78814 | -156.94888 | 1303 ft | 23 kts | 42° |
| 2026-05-08 05:38 | 20.78905 | -156.94909 | 1302 ft | 0 kts | 312° |
| 2026-05-08 05:39 | 20.78930 | -156.94934 | 1299 ft | 12 kts | 337° |
| 2026-05-08 05:39 | 20.79016 | -156.94886 | 1302 ft | 13 kts | 322° |
| 2026-05-08 05:39 | 20.79045 | -156.94932 | 1302 ft | 0 kts | 309° |